createdAt,value
2023-01-19T00:04:29.377Z,4.29
2023-01-19T00:09:38.370Z,4.03
2023-01-19T00:14:44.302Z,3.92
2023-01-19T00:19:48.819Z,4.55
2023-01-19T00:24:53.419Z,3.30
2023-01-19T00:29:59.588Z,3.60
2023-01-19T00:35:04.361Z,3.96
2023-01-19T00:40:10.573Z,4.70
2023-01-19T00:45:18.645Z,4.00
2023-01-19T00:50:23.152Z,4.86
2023-01-19T00:55:28.722Z,5.33
2023-01-19T01:00:34.717Z,5.48
2023-01-19T01:05:42.640Z,5.14
2023-01-19T01:10:47.065Z,5.05
2023-01-19T01:15:53.425Z,5.52
2023-01-19T01:21:02.945Z,5.71
2023-01-19T01:26:07.394Z,5.26
2023-01-19T01:31:13.351Z,5.54
2023-01-19T01:36:19.096Z,5.98
2023-01-19T01:41:25.355Z,5.13
2023-01-19T01:46:32.869Z,4.92
2023-01-19T01:51:43.263Z,4.81
2023-01-19T01:56:49.603Z,5.00
2023-01-19T02:02:14.648Z,5.71
2023-01-19T02:07:45.531Z,5.77
2023-01-19T02:13:07.996Z,5.65
2023-01-19T02:18:14.394Z,5.96
2023-01-19T02:23:24.976Z,5.97
2023-01-19T02:28:32.432Z,6.07
2023-01-19T02:33:37.472Z,6.03
2023-01-19T02:38:45.438Z,5.89
2023-01-19T02:43:52.117Z,5.74
2023-01-19T02:49:00.651Z,5.51
2023-01-19T02:54:22.306Z,5.08
2023-01-19T02:59:45.454Z,3.31
2023-01-19T03:05:06.726Z,2.68
2023-01-19T03:10:19.156Z,2.37
2023-01-19T03:15:32.398Z,2.12
2023-01-19T03:20:38.015Z,3.06
2023-01-19T03:25:47.436Z,2.93
2023-01-19T03:31:00.550Z,3.60
2023-01-19T03:36:09.732Z,2.39
2023-01-19T03:41:18.075Z,2.23
2023-01-19T03:46:25.879Z,2.68
2023-01-19T03:51:31.058Z,2.54
2023-01-19T03:56:35.536Z,2.01
2023-01-19T04:01:41.817Z,2.17
2023-01-19T04:06:46.400Z,2.12
2023-01-19T04:11:51.515Z,1.00
2023-01-19T04:16:57.485Z,1.58
2023-01-19T04:22:02.141Z,1.30
2023-01-19T04:33:27.857Z,1.01
2023-01-19T05:00:53.700Z,1.01
2023-01-19T05:06:27.528Z,0.36
2023-01-19T05:11:32.295Z,0.65
2023-01-19T05:16:38.341Z,0.61
2023-01-19T05:21:42.871Z,0.09
2023-01-19T05:26:47.699Z,-0.13
2023-01-19T05:31:53.733Z,0.60
2023-01-19T05:36:58.328Z,0.48
2023-01-19T05:42:02.754Z,0.94
2023-01-19T05:47:08.714Z,1.05
2023-01-19T05:52:13.297Z,1.21
2023-01-19T05:57:17.771Z,0.87
2023-01-19T06:02:28.834Z,1.51
2023-01-19T06:07:33.977Z,1.47
2023-01-19T06:12:40.227Z,1.68
2023-01-19T06:17:48.455Z,1.12
2023-01-19T06:22:53.013Z,1.99
2023-01-19T06:27:57.563Z,1.69
2023-01-19T06:33:05.795Z,1.33
2023-01-19T06:38:14.178Z,1.94
2023-01-19T06:43:22.198Z,1.65
2023-01-19T06:48:36.711Z,2.06
2023-01-19T06:53:50.423Z,1.71
2023-01-19T06:58:58.721Z,1.34
2023-01-19T07:04:08.707Z,1.11
2023-01-19T07:09:20.394Z,1.42
2023-01-19T07:14:25.833Z,0.84
2023-01-19T07:19:31.790Z,0.53
2023-01-19T07:24:38.135Z,0.32
2023-01-19T07:29:43.047Z,0.15
2023-01-19T07:34:49.080Z,0.24
2023-01-19T07:39:55.747Z,0.06
2023-01-19T07:45:01.136Z,0.17
2023-01-19T07:50:09.372Z,-0.11
2023-01-19T07:55:17.621Z,-0.16
2023-01-19T08:00:26.101Z,-0.08
2023-01-19T08:05:32.699Z,0.31
2023-01-19T08:10:42.819Z,0.45
2023-01-19T08:16:00.855Z,0.21
2023-01-19T08:21:39.100Z,-0.06
2023-01-19T08:27:03.779Z,-0.04
2023-01-19T08:32:34.382Z,0.04
2023-01-19T08:38:10.673Z,0.35
2023-01-19T08:43:34.642Z,-0.07
2023-01-19T09:13:30.402Z,-0.09
2023-01-19T09:19:25.581Z,0.16
2023-01-19T09:24:30.997Z,-0.07
2023-01-19T09:29:36.307Z,0.10
2023-01-19T09:34:42.369Z,-0.23
2023-01-19T09:39:49.803Z,-0.12
2023-01-19T09:44:55.684Z,-0.25
2023-01-19T09:50:05.782Z,-0.27
2023-01-19T09:55:21.549Z,0.06
2023-01-19T10:01:40.153Z,0.70
2023-01-19T10:08:55.460Z,0.55
2023-01-19T10:14:27.556Z,0.51
2023-01-19T10:19:38.239Z,0.31
2023-01-19T10:24:45.028Z,0.40
2023-01-19T10:29:51.544Z,0.07
2023-01-19T10:34:58.286Z,0.06
2023-01-19T10:40:17.204Z,0.12
2023-01-19T10:45:26.724Z,-0.01
2023-01-19T10:50:33.795Z,-0.07
2023-01-19T10:55:43.692Z,0.15
2023-01-19T11:00:53.020Z,-0.15
2023-01-19T11:06:27.955Z,-0.18
2023-01-19T11:11:44.625Z,-0.22
2023-01-19T11:16:55.037Z,-0.06
2023-01-19T11:22:16.873Z,-0.03
2023-01-19T11:27:23.291Z,-0.39
2023-01-19T11:32:34.301Z,-0.21
2023-01-19T11:37:43.948Z,-0.10
2023-01-19T11:42:53.561Z,-0.09
2023-01-19T11:48:03.404Z,-0.42
2023-01-19T11:53:15.922Z,-0.13
2023-01-19T11:58:21.865Z,0.06
2023-01-19T12:03:31.847Z,0.26
2023-01-19T12:08:41.275Z,0.74
2023-01-19T12:13:47.867Z,0.20
2023-01-19T12:19:00.815Z,0.23
2023-01-19T12:24:16.421Z,0.11
2023-01-19T12:29:23.186Z,0.00
2023-01-19T12:34:42.518Z,-0.09
2023-01-19T12:39:50.468Z,-0.07
2023-01-19T12:45:06.160Z,0.17
2023-01-19T12:50:19.288Z,0.54
2023-01-19T12:55:26.004Z,0.27
2023-01-19T13:00:34.430Z,0.64
2023-01-19T13:06:01.352Z,0.22
2023-01-19T13:11:18.273Z,1.18
2023-01-19T13:17:02.373Z,0.82
2023-01-19T13:22:43.871Z,0.81
2023-01-19T13:27:50.045Z,0.96
2023-01-19T13:32:55.435Z,0.92
2023-01-19T13:38:01.029Z,1.40
2023-01-19T13:43:16.242Z,1.01
2023-01-19T13:48:23.456Z,0.65
2023-01-19T13:53:29.513Z,0.75
2023-01-19T13:58:35.859Z,0.50
2023-01-19T14:03:42.610Z,0.25
2023-01-19T14:08:47.195Z,0.13
2023-01-19T14:13:53.470Z,0.64
2023-01-19T14:19:02.511Z,0.41
2023-01-19T14:24:11.614Z,0.72
2023-01-19T14:29:25.851Z,0.32
2023-01-19T14:34:34.579Z,0.21
2023-01-19T14:39:39.426Z,0.53
2023-01-19T14:44:49.362Z,0.24
2023-01-19T14:49:56.258Z,-0.08
2023-01-19T14:55:03.205Z,-0.27
2023-01-19T15:00:20.508Z,0.53
2023-01-19T15:05:25.480Z,0.27
2023-01-19T15:10:31.359Z,-0.05
2023-01-19T15:15:48.739Z,-0.26
2023-01-19T15:21:03.367Z,-0.15
2023-01-19T15:32:53.532Z,-0.28
2023-01-19T15:46:30.262Z,-0.32
2023-01-19T15:52:17.866Z,-0.21
2023-01-19T15:57:22.757Z,-0.43
2023-01-19T16:02:52.195Z,-0.26
2023-01-19T16:08:03.273Z,-0.22
2023-01-19T16:13:08.049Z,-0.40
2023-01-19T16:18:14.085Z,-0.30
2023-01-19T16:23:28.735Z,-0.41
2023-01-19T16:28:38.787Z,-0.01
2023-01-19T16:33:43.553Z,-0.28
2023-01-19T16:38:52.537Z,-0.36
2023-01-19T16:43:59.353Z,0.04
2023-01-19T16:49:08.395Z,-0.21
2023-01-19T16:54:16.956Z,-0.50
2023-01-19T16:59:23.335Z,-0.16
2023-01-19T17:04:28.482Z,0.10
2023-01-19T17:09:37.546Z,0.12
2023-01-19T17:14:43.260Z,0.20
2023-01-19T17:19:47.413Z,0.69
2023-01-19T17:24:53.463Z,-0.14
2023-01-19T17:29:59.087Z,-0.06
2023-01-19T17:35:11.383Z,-0.25
2023-01-19T17:40:18.214Z,-0.02
2023-01-19T17:45:22.811Z,-0.15
2023-01-19T17:50:27.417Z,-0.42
2023-01-19T17:55:35.298Z,-0.17
2023-01-19T18:00:39.966Z,-0.11
2023-01-19T18:05:44.617Z,0.44
2023-01-19T18:10:56.346Z,0.49
2023-01-19T18:16:01.973Z,-0.33
2023-01-19T18:21:07.675Z,0.40
2023-01-19T18:26:15.249Z,0.32
2023-01-19T18:31:20.704Z,0.34
2023-01-19T18:36:25.359Z,0.46
2023-01-19T18:41:31.933Z,0.56
2023-01-19T18:46:36.474Z,1.04
2023-01-19T18:51:41.736Z,1.13
2023-01-19T18:56:49.201Z,0.51
2023-01-19T19:01:53.890Z,0.45
2023-01-19T19:06:58.636Z,0.36
2023-01-19T19:12:04.741Z,0.53
2023-01-19T19:17:09.583Z,0.92
2023-01-19T19:22:14.768Z,1.25
2023-01-19T19:27:20.974Z,0.94
2023-01-19T19:32:25.526Z,0.68
2023-01-19T19:37:30.523Z,0.92
2023-01-19T19:42:37.684Z,0.53
2023-01-19T19:47:43.004Z,0.41
2023-01-19T19:52:47.530Z,0.53
2023-01-19T19:57:53.464Z,0.57
2023-01-19T20:02:57.830Z,0.46
2023-01-19T20:08:03.023Z,0.68
2023-01-19T20:13:09.355Z,0.77
2023-01-19T20:18:16.035Z,1.01
2023-01-19T20:23:25.446Z,0.90
2023-01-19T20:28:31.579Z,0.79
2023-01-19T20:33:36.179Z,0.96
2023-01-19T20:38:41.909Z,0.88
2023-01-19T20:43:48.089Z,0.22
2023-01-19T20:48:54.740Z,0.34
2023-01-19T20:53:59.449Z,0.18
2023-01-19T20:59:05.430Z,0.29
2023-01-19T21:04:10.141Z,0.39
2023-01-19T21:09:14.575Z,0.53
2023-01-19T21:14:20.960Z,0.49
2023-01-19T21:19:25.553Z,0.42
2023-01-19T21:24:32.979Z,0.26
2023-01-19T21:29:38.845Z,0.41
2023-01-19T21:34:44.497Z,0.04
2023-01-19T21:39:48.599Z,0.12
2023-01-19T21:44:54.540Z,0.16
2023-01-19T21:49:59.014Z,0.43
2023-01-19T21:55:03.557Z,0.90
2023-01-19T22:00:11.779Z,0.78
2023-01-19T22:05:16.356Z,0.75
2023-01-19T22:10:20.876Z,0.95
2023-01-19T22:15:26.896Z,0.34
2023-01-19T22:20:31.430Z,0.41
2023-01-19T22:25:36.077Z,0.05
2023-01-19T22:30:42.198Z,0.38
2023-01-19T22:35:46.512Z,0.42
2023-01-19T22:40:51.021Z,0.80
2023-01-19T22:45:59.214Z,0.86
2023-01-19T22:51:04.250Z,0.76
2023-01-19T22:56:13.762Z,1.14
2023-01-19T23:01:21.480Z,1.77
2023-01-19T23:06:27.854Z,0.88
2023-01-19T23:11:36.099Z,0.42
2023-01-19T23:16:42.660Z,0.66
2023-01-19T23:21:47.449Z,0.90
2023-01-19T23:26:52.565Z,0.25
2023-01-19T23:31:58.503Z,0.63
2023-01-19T23:37:02.599Z,0.27
2023-01-19T23:42:08.256Z,0.33
2023-01-19T23:47:13.817Z,0.53
2023-01-19T23:52:18.236Z,0.34
2023-01-19T23:57:22.727Z,0.34
